Terminal Aerodrome Forecast
Issued by NWS Blacksburg, VA

Home | Current Version | Previous Version | Text Only | Print | Product List | Glossary On
Versions: 1 2 3 4 5 6 7 8 9 10 11 12 13 14 15 16
000
FTUS41 KRNK 291120
TAFDAN
TAF
KDAN 291120Z 2912/3012 27005KT P6SM SCT060
     FM291400 29006KT P6SM SCT020 BKN050
     FM300500 00000KT P6SM SCT060=

USA.gov is the U.S. government's official web portal to all federal, state and local government web resources and services.